Time;durP1;ratioP1;P1;durP2;ratioP2;P2;SDS_P1;SDS_P2;PMS_P1;PMS_P2;Temp;Humidity;BMP_temperature;BMP_pressure;BME280_temperature;BME280_humidity;BME280_pressure;Samples;Min_cycle;Max_cycle;Signal;HPM_P1;HPM_P2
2023/05/28 00:00:57;;;;;;;9.40;3.40;;;;;;;14.75;55.20;99639.02;106820;1263;66309;-41
2023/05/28 00:03:25;;;;;;;8.10;3.60;;;;;;;14.74;55.39;99635.10;107007;1261;72798;-41
2023/05/28 00:05:53;;;;;;;12.50;3.80;;;;;;;14.71;55.30;99631.51;107032;1260;59496;-41
2023/05/28 00:08:22;;;;;;;8.00;3.70;;;;;;;14.70;55.31;99630.87;107046;1260;59593;-41
2023/05/28 00:10:50;;;;;;;9.80;4.00;;;;;;;14.67;55.54;99632.25;107017;1260;72043;-40
2023/05/28 00:13:18;;;;;;;9.60;4.20;;;;;;;14.64;55.61;99639.80;107072;1260;67556;-40
2023/05/28 00:15:46;;;;;;;7.90;3.70;;;;;;;14.60;55.70;99640.00;107030;1261;71457;-40
2023/05/28 00:18:14;;;;;;;14.80;3.70;;;;;;;14.58;55.64;99639.29;106995;1262;60512;-40
2023/05/28 00:20:42;;;;;;;10.00;3.70;;;;;;;14.56;55.81;99634.77;107075;1260;60547;-39
2023/05/28 00:23:10;;;;;;;12.00;3.70;;;;;;;14.55;56.02;99633.96;107018;1260;73868;-40
2023/05/28 00:25:38;;;;;;;15.10;4.40;;;;;;;14.51;55.89;99634.88;107003;1260;67785;-40
2023/05/28 00:28:05;;;;;;;8.40;3.60;;;;;;;14.50;55.94;99635.56;107007;1265;72690;-40
2023/05/28 00:30:33;;;;;;;12.60;3.60;;;;;;;14.48;55.97;99637.11;106999;1266;60480;-40
2023/05/28 00:33:01;;;;;;;9.10;3.40;;;;;;;14.46;56.07;99637.64;107034;1260;60323;-40
2023/05/28 00:35:29;;;;;;;8.90;3.60;;;;;;;14.43;56.04;99637.53;107093;1260;72555;-40
2023/05/28 00:37:58;;;;;;;13.20;3.70;;;;;;;14.41;56.31;99641.27;107048;1260;66653;-40
2023/05/28 00:40:25;;;;;;;11.20;3.80;;;;;;;14.38;56.48;99638.98;106873;1260;72710;-40
2023/05/28 00:42:53;;;;;;;10.50;3.50;;;;;;;14.32;56.69;99635.33;106857;1260;60962;-40
2023/05/28 00:45:21;;;;;;;10.50;3.90;;;;;;;14.27;56.60;99642.45;106955;1260;60314;-41
2023/05/28 00:47:49;;;;;;;9.30;4.00;;;;;;;14.23;56.86;99647.48;107110;1261;73865;-40
2023/05/28 00:50:17;;;;;;;7.10;3.30;;;;;;;14.18;56.99;99644.48;107016;1261;67894;-40
2023/05/28 00:52:46;;;;;;;9.30;3.80;;;;;;;14.16;57.06;99645.38;107005;1260;72726;-40
2023/05/28 00:55:15;;;;;;;8.00;3.80;;;;;;;14.13;57.16;99646.07;107082;1260;60393;-40
2023/05/28 00:57:43;;;;;;;8.60;3.50;;;;;;;14.10;57.29;99646.81;107055;1260;60317;-40
2023/05/28 01:00:11;;;;;;;6.60;3.60;;;;;;;14.07;57.40;99647.56;107022;1260;74036;-40
2023/05/28 01:02:40;;;;;;;7.40;3.50;;;;;;;14.01;57.34;99642.84;107071;1260;68073;-39
2023/05/28 01:05:09;;;;;;;7.50;3.70;;;;;;;14.00;57.55;99645.38;107068;1260;71419;-40
2023/05/28 01:07:36;;;;;;;9.50;3.40;;;;;;;13.97;58.15;99645.91;106966;1260;60323;-40
2023/05/28 01:10:05;;;;;;;12.20;3.60;;;;;;;13.98;58.06;99645.14;107050;1260;60319;-40
2023/05/28 01:12:33;;;;;;;8.10;3.50;;;;;;;14.01;57.94;99649.30;107036;1260;72572;-40
2023/05/28 01:15:01;;;;;;;9.50;3.50;;;;;;;14.03;57.87;99649.39;107041;1260;66646;-40
2023/05/28 01:17:29;;;;;;;11.40;3.60;;;;;;;14.03;57.87;99656.25;106886;1261;72748;-40
2023/05/28 01:20:01;;;;;;;15.40;3.30;;;;;;;14.04;57.94;99656.71;106948;1260;60429;-40
2023/05/28 01:22:29;;;;;;;7.20;3.70;;;;;;;14.04;57.98;99657.42;106926;1260;60406;-40
2023/05/28 01:24:57;;;;;;;10.90;3.70;;;;;;;14.01;57.76;99656.94;106827;1260;73869;-40
2023/05/28 01:27:25;;;;;;;6.20;3.30;;;;;;;13.98;57.90;99659.64;107016;1260;67572;-40
2023/05/28 01:29:52;;;;;;;7.10;3.30;;;;;;;13.93;57.71;99661.61;106894;1266;71378;-40
2023/05/28 01:32:20;;;;;;;10.60;3.70;;;;;;;13.89;58.18;99663.67;106876;1263;60441;-40
2023/05/28 01:34:47;;;;;;;7.20;3.50;;;;;;;13.84;58.02;99670.01;107006;1260;60382;-40
2023/05/28 01:37:16;;;;;;;8.30;3.70;;;;;;;13.79;58.00;99670.80;106926;1260;73863;-40
2023/05/28 01:39:45;;;;;;;6.80;3.90;;;;;;;13.74;58.17;99670.83;106892;1260;66304;-40
2023/05/28 01:42:13;;;;;;;10.20;4.00;;;;;;;13.70;58.45;99670.08;107033;1260;72571;-41
2023/05/28 01:44:40;;;;;;;6.50;3.30;;;;;;;13.66;58.39;99675.62;106892;1261;60339;-40
2023/05/28 01:47:09;;;;;;;7.90;3.60;;;;;;;13.62;58.25;99680.34;106886;1266;60435;-41
2023/05/28 01:49:37;;;;;;;9.50;3.80;;;;;;;13.58;58.62;99685.42;107055;1260;73877;-41
2023/05/28 01:52:06;;;;;;;8.30;3.30;;;;;;;13.54;58.73;99686.48;106883;1266;67608;-41
2023/05/28 01:54:34;;;;;;;7.50;3.20;;;;;;;13.52;58.68;99691.19;107049;1260;71777;-40
2023/05/28 01:57:03;;;;;;;6.90;3.30;;;;;;;13.56;58.38;99694.59;106957;1266;60033;-40
2023/05/28 01:59:31;;;;;;;8.80;3.60;;;;;;;13.59;58.47;99694.01;106925;1260;60250;-41
2023/05/28 02:01:58;;;;;;;7.40;3.50;;;;;;;13.60;58.51;99691.38;106892;1260;72588;-40
2023/05/28 02:04:26;;;;;;;6.80;3.50;;;;;;;13.63;58.37;99691.79;107058;1261;67526;-41
2023/05/28 02:06:55;;;;;;;6.80;3.30;;;;;;;13.65;58.04;99689.39;107028;1260;71374;-41
2023/05/28 02:09:23;;;;;;;5.70;3.50;;;;;;;13.64;58.14;99693.45;107011;1261;60116;-41
2023/05/28 02:11:50;;;;;;;6.80;3.70;;;;;;;13.60;58.08;99695.19;106907;1260;60320;-41
2023/05/28 02:14:18;;;;;;;10.00;3.50;;;;;;;13.58;58.34;99695.16;107044;1260;73858;-40
2023/05/28 02:16:48;;;;;;;6.30;3.20;;;;;;;13.55;58.14;99694.59;107022;1260;66671;-40
2023/05/28 02:19:16;;;;;;;8.00;3.30;;;;;;;13.50;58.49;99696.31;106957;1265;71039;-41
2023/05/28 02:21:43;;;;;;;9.10;3.50;;;;;;;13.47;58.78;99693.63;107037;1260;59745;-41
2023/05/28 02:24:11;;;;;;;7.40;3.50;;;;;;;13.42;58.77;99688.96;106913;1260;60456;-41
2023/05/28 02:26:39;;;;;;;11.80;3.60;;;;;;;13.37;58.84;99687.51;107019;1260;73841;-40
2023/05/28 02:29:07;;;;;;;9.70;3.50;;;;;;;13.32;58.78;99685.34;106877;1260;67567;-40
2023/05/28 02:31:35;;;;;;;11.40;3.10;;;;;;;13.29;59.06;99684.75;107023;1260;71475;-41
2023/05/28 02:34:03;;;;;;;5.50;2.80;;;;;;;13.26;59.07;99689.08;106994;1260;60496;-41
2023/05/28 02:36:32;;;;;;;9.40;3.20;;;;;;;13.31;59.26;99690.85;107045;1260;60688;-40
2023/05/28 02:39:02;;;;;;;9.60;3.70;;;;;;;13.34;59.01;99692.92;107029;1260;74287;-40
2023/05/28 02:41:30;;;;;;;9.70;3.70;;;;;;;13.35;58.69;99693.70;106869;1262;66339;-41
2023/05/28 02:43:58;;;;;;;7.20;3.20;;;;;;;13.36;58.35;99694.58;106898;1266;71928;-41
2023/05/28 02:46:25;;;;;;;12.30;3.60;;;;;;;13.38;58.29;99696.78;107004;1266;60430;-41
2023/05/28 02:48:53;;;;;;;6.10;3.40;;;;;;;13.38;58.31;99697.56;106995;1260;60306;-41
2023/05/28 02:51:23;;;;;;;;;;;;;;;13.37;58.28;99694.65;107016;1260;73832;-40
2023/05/28 02:54:20;;;;;;;7.90;3.40;;;;;;;13.27;58.33;99694.92;106969;1260;67599;-40
2023/05/28 02:56:47;;;;;;;14.20;3.70;;;;;;;13.23;58.31;99694.48;106885;1260;72707;-40
2023/05/28 02:59:15;;;;;;;9.20;3.80;;;;;;;13.24;58.35;99695.27;106977;1260;60380;-40
2023/05/28 03:01:43;;;;;;;6.20;3.50;;;;;;;13.22;58.29;99700.84;107022;1260;59235;-40
2023/05/28 03:04:11;;;;;;;9.80;3.40;;;;;;;13.17;58.65;99703.04;107071;1260;72594;-40
2023/05/28 03:06:41;;;;;;;12.50;3.90;;;;;;;13.14;58.63;99708.42;106921;1260;66507;-40
2023/05/28 03:09:09;;;;;;;8.70;3.50;;;;;;;13.13;58.90;99710.60;107059;1260;72694;-40
2023/05/28 03:11:37;;;;;;;8.40;3.30;;;;;;;13.14;59.16;99710.84;106900;1260;60845;-40
2023/05/28 03:14:05;;;;;;;7.50;3.40;;;;;;;13.14;58.80;99704.84;106924;1260;60499;-40
2023/05/28 03:16:36;;;;;;;7.50;3.30;;;;;;;13.15;58.62;99707.20;107296;1256;72373;-40
2023/05/28 03:19:06;;;;;;;9.40;3.60;;;;;;;13.16;58.67;99714.45;107238;1256;66610;-40
2023/05/28 03:21:33;;;;;;;8.80;3.60;;;;;;;13.16;58.71;99715.70;107280;1257;71438;-41
2023/05/28 03:24:01;;;;;;;6.80;3.30;;;;;;;13.15;58.78;99717.08;107318;1262;60402;-39
2023/05/28 03:26:39;;;;;;;7.70;3.30;;;;;;;13.18;58.70;99725.52;107270;1257;60284;-39
2023/05/28 03:29:06;;;;;;;7.20;3.00;;;;;;;13.27;58.84;99729.70;107238;1257;72626;-39
2023/05/28 03:31:57;;;;;;;8.80;3.10;;;;;;;13.35;58.35;99727.46;107060;1257;67555;-40
2023/05/28 03:34:25;;;;;;;6.80;3.40;;;;;;;13.38;57.90;99730.63;107220;1257;71625;-39
2023/05/28 03:36:52;;;;;;;5.50;3.00;;;;;;;13.42;58.01;99729.20;107255;1257;60418;-40
2023/05/28 03:39:20;;;;;;;8.00;3.70;;;;;;;13.47;57.99;99726.09;107170;1257;60402;-40
2023/05/28 03:41:49;;;;;;;12.00;3.50;;;;;;;13.54;57.50;99727.48;107192;1257;73862;-40
2023/05/28 03:44:17;;;;;;;5.10;3.10;;;;;;;13.57;57.72;99727.13;107169;1257;65975;-40
2023/05/28 03:46:45;;;;;;;6.90;3.30;;;;;;;13.58;57.62;99730.48;107329;1257;71439;-40
2023/05/28 03:49:13;;;;;;;5.90;3.20;;;;;;;13.61;57.21;99731.30;107261;1257;60454;-40
2023/05/28 03:51:40;;;;;;;6.90;3.40;;;;;;;13.65;57.13;99734.39;107255;1261;60632;-40
2023/05/28 03:54:10;;;;;;;5.30;3.20;;;;;;;13.69;57.43;99731.48;107320;1261;73868;-40
2023/05/28 03:56:38;;;;;;;8.60;3.50;;;;;;;13.72;57.49;99730.13;107181;1258;67586;-40
2023/05/28 03:59:05;;;;;;;8.30;3.40;;;;;;;13.75;57.28;99729.77;107259;1257;71392;-40
2023/05/28 04:01:35;;;;;;;8.00;3.90;;;;;;;13.77;56.87;99728.40;107176;1257;60389;-40
2023/05/28 04:04:05;;;;;;;7.60;3.60;;;;;;;13.80;56.96;99724.39;107323;1257;60287;-40
2023/05/28 04:06:33;;;;;;;6.80;3.60;;;;;;;13.82;56.54;99721.91;107348;1258;72540;-40
2023/05/28 04:09:01;;;;;;;6.30;3.10;;;;;;;13.84;56.73;99726.06;107217;1262;67529;-40
2023/05/28 04:11:30;;;;;;;8.50;3.40;;;;;;;13.89;56.77;99727.83;107329;1258;72690;-40
2023/05/28 04:13:58;;;;;;;6.30;3.30;;;;;;;13.94;56.43;99730.45;107303;1258;60523;-40
2023/05/28 04:16:27;;;;;;;9.30;3.70;;;;;;;13.98;56.09;99731.59;107263;1259;59627;-40
2023/05/28 04:18:56;;;;;;;9.60;3.70;;;;;;;14.01;55.85;99734.98;107268;1257;73868;-41
2023/05/28 04:21:24;;;;;;;6.00;3.20;;;;;;;14.03;56.16;99733.75;107246;1257;66783;-40
2023/05/28 04:23:51;;;;;;;6.90;3.20;;;;;;;14.06;56.09;99729.73;107176;1257;72849;-40
2023/05/28 04:26:21;;;;;;;8.50;3.10;;;;;;;14.08;56.12;99730.14;107151;1257;60505;-40
2023/05/28 04:28:50;;;;;;;11.00;3.50;;;;;;;14.12;56.15;99730.34;107370;1257;60536;-40
2023/05/28 04:31:18;;;;;;;6.10;3.30;;;;;;;14.16;56.00;99733.66;107290;1263;73295;-40
2023/05/28 04:33:48;;;;;;;9.80;3.40;;;;;;;14.19;55.79;99736.18;107186;1256;68064;-40
2023/05/28 04:36:16;;;;;;;9.70;3.20;;;;;;;14.22;55.91;99741.97;107174;1260;72851;-41
2023/05/28 04:38:43;;;;;;;6.70;3.30;;;;;;;14.27;55.95;99742.49;107314;1260;60209;-40
2023/05/28 04:41:14;;;;;;;6.40;3.10;;;;;;;14.31;55.22;99741.60;107311;1260;60484;-40
2023/05/28 04:43:41;;;;;;;;;;;;;;;14.33;55.63;99745.20;107306;1261;73851;-40
2023/05/28 04:46:09;;;;;;;4.80;2.80;;;;;;;14.32;55.58;99743.33;107206;1257;67623;-40
2023/05/28 04:48:37;;;;;;;7.20;3.10;;;;;;;14.33;55.69;99741.16;107173;1260;71493;-40
2023/05/28 04:51:06;;;;;;;8.10;3.70;;;;;;;14.41;55.35;99748.35;107269;1257;60489;-40
2023/05/28 04:53:34;;;;;;;7.90;2.90;;;;;;;14.44;55.35;99750.24;107299;1257;60526;-40
2023/05/28 04:56:03;;;;;;;5.90;3.30;;;;;;;14.48;55.22;99749.66;107278;1257;72616;-40
2023/05/28 04:58:32;;;;;;;6.10;3.10;;;;;;;14.51;55.24;99749.61;107315;1256;66636;-40
2023/05/28 05:00:59;;;;;;;6.40;3.40;;;;;;;14.55;55.36;99751.84;107177;1260;72778;-40
2023/05/28 05:03:30;;;;;;;4.80;3.00;;;;;;;14.61;55.59;99754.23;107262;1256;60878;-40
2023/05/28 05:05:58;;;;;;;6.30;3.50;;;;;;;14.69;54.96;99751.02;107182;1259;60416;-40
2023/05/28 05:08:27;;;;;;;9.50;4.00;;;;;;;14.75;54.14;99752.63;107178;1262;74251;-40
2023/05/28 05:10:54;;;;;;;8.30;2.90;;;;;;;14.83;54.80;99750.27;107277;1257;67756;-40
2023/05/28 05:13:23;;;;;;;6.90;3.10;;;;;;;14.94;54.61;99751.30;107259;1258;71477;-40
2023/05/28 05:15:51;;;;;;;4.90;2.90;;;;;;;15.04;54.13;99746.62;107299;1260;60195;-40
2023/05/28 05:18:20;;;;;;;8.80;3.10;;;;;;;15.15;53.72;99745.42;107629;1255;60420;-40
2023/05/28 05:20:48;;;;;;;7.70;2.90;;;;;;;15.23;53.14;99752.19;107491;1258;73859;-46
2023/05/28 05:23:16;;;;;;;11.60;2.90;;;;;;;15.30;53.01;99755.59;107711;1254;66639;-40
2023/05/28 05:25:48;;;;;;;7.40;2.80;;;;;;;15.37;52.36;99754.08;107642;1257;71857;-40
2023/05/28 05:28:15;;;;;;;5.60;2.90;;;;;;;15.41;51.48;99755.12;107481;1257;60306;-40
2023/05/28 05:30:43;;;;;;;6.60;3.30;;;;;;;15.45;51.57;99758.18;107645;1253;60280;-40
2023/05/28 05:33:11;;;;;;;5.60;2.60;;;;;;;15.53;51.65;99762.39;107465;1259;73894;-40
2023/05/28 05:36:11;;;;;;;7.80;3.10;;;;;;;15.67;52.41;99767.31;107254;1254;67828;-40
2023/05/28 05:39:06;;;;;;;8.00;3.00;;;;;;;15.81;51.76;99764.79;107617;1253;71953;-40
2023/05/28 05:41:53;;;;;;;6.30;3.20;;;;;;;15.94;50.22;99763.67;107642;1253;60764;-40
2023/05/28 05:44:26;;;;;;;5.50;3.00;;;;;;;16.01;50.15;99766.35;107626;1257;60423;-40
2023/05/28 05:46:54;;;;;;;5.20;2.80;;;;;;;16.06;49.06;99764.58;107605;1254;73838;-40
2023/05/28 05:49:21;;;;;;;5.60;2.40;;;;;;;16.12;49.79;99765.14;107510;1258;66672;-40
2023/05/28 05:51:49;;;;;;;4.60;2.50;;;;;;;16.20;50.29;99758.91;107630;1257;72718;-40
2023/05/28 05:54:17;;;;;;;8.50;3.30;;;;;;;16.31;50.30;99761.75;107562;1254;60388;-40
2023/05/28 05:56:45;;;;;;;9.80;3.10;;;;;;;16.41;50.03;99760.43;107654;1254;60280;-40
2023/05/28 05:59:13;;;;;;;6.40;3.20;;;;;;;16.49;48.95;99762.79;107643;1257;72652;-40
2023/05/28 06:01:40;;;;;;;7.80;2.90;;;;;;;16.54;48.96;99763.19;107537;1260;66294;-40
2023/05/28 06:04:08;;;;;;;5.30;2.90;;;;;;;16.63;49.40;99765.88;107531;1259;71810;-40
2023/05/28 06:06:48;;;;;;;5.90;2.80;;;;;;;16.73;48.69;99767.61;107611;1260;60338;-40
2023/05/28 06:09:34;;;;;;;7.50;2.80;;;;;;;16.81;48.56;99774.42;107599;1257;60296;-40
2023/05/28 06:12:07;;;;;;;7.40;2.80;;;;;;;16.88;48.13;99770.90;107629;1258;73854;-40
2023/05/28 06:14:35;;;;;;;6.00;2.70;;;;;;;16.96;47.89;99774.50;107505;1254;67695;-40
2023/05/28 06:17:03;;;;;;;4.70;2.40;;;;;;;17.05;47.65;99771.84;107590;1260;72736;-40
2023/05/28 06:19:33;;;;;;;6.70;3.00;;;;;;;17.11;47.09;99776.44;107616;1254;60434;-39
2023/05/28 06:22:03;;;;;;;6.60;2.80;;;;;;;17.17;47.07;99774.40;107651;1253;60440;-40
2023/05/28 06:24:32;;;;;;;6.50;2.60;;;;;;;17.23;46.56;99772.27;107506;1258;73859;-40
2023/05/28 06:26:59;;;;;;;7.70;2.50;;;;;;;17.29;46.89;99771.42;107578;1257;66282;-39
2023/05/28 06:29:28;;;;;;;5.70;2.80;;;;;;;17.38;46.61;99770.61;107449;1257;72671;-39
2023/05/28 06:31:55;;;;;;;5.00;3.00;;;;;;;17.49;47.14;99770.20;107572;1253;60152;-39
2023/05/28 06:34:23;;;;;;;5.50;2.60;;;;;;;17.60;46.36;99766.11;107570;1254;60332;-39
2023/05/28 06:36:51;;;;;;;6.50;2.80;;;;;;;17.71;46.42;99771.58;107494;1260;73952;-40
2023/05/28 06:39:19;;;;;;;6.20;2.70;;;;;;;17.81;45.24;99774.73;107726;1254;66646;-39
2023/05/28 06:41:49;;;;;;;7.80;3.10;;;;;;;17.88;45.35;99771.11;107601;1260;72646;-39
2023/05/28 06:44:29;;;;;;;7.90;2.70;;;;;;;17.94;45.39;99765.28;107619;1257;60444;-39
2023/05/28 06:47:03;;;;;;;8.60;2.70;;;;;;;18.02;45.70;99769.33;107620;1255;60331;-40
2023/05/28 06:49:31;;;;;;;7.10;2.70;;;;;;;18.10;44.97;99767.56;107771;1252;73313;-40
2023/05/28 06:51:59;;;;;;;5.70;2.40;;;;;;;18.14;43.79;99763.22;107590;1254;67601;-40
2023/05/28 06:54:28;;;;;;;4.60;2.70;;;;;;;18.19;43.59;99758.89;107618;1254;72642;-40
2023/05/28 06:56:55;;;;;;;7.10;2.60;;;;;;;18.23;44.02;99759.80;107334;1257;60562;-39
2023/05/28 06:59:52;;;;;;;5.20;3.00;;;;;;;18.32;44.34;99756.70;107484;1254;60311;-39
2023/05/28 07:02:31;;;;;;;4.50;2.90;;;;;;;18.39;44.48;99749.98;107488;1254;74274;-40
2023/05/28 07:05:13;;;;;;;6.00;2.90;;;;;;;18.47;43.67;99745.54;107536;1254;66601;-40
2023/05/28 07:07:41;;;;;;;6.90;2.80;;;;;;;18.53;43.90;99747.48;107675;1255;72721;-40
2023/05/28 07:10:10;;;;;;;5.60;2.60;;;;;;;18.59;43.22;99744.77;107461;1254;60689;-43
2023/05/28 07:12:40;;;;;;;6.20;2.50;;;;;;;18.61;42.70;99745.39;107545;1254;60254;-41
2023/05/28 07:15:09;;;;;;;6.20;2.30;;;;;;;18.64;42.69;99748.19;107494;1255;73621;-41
2023/05/28 07:17:37;;;;;;;;;;;;;;;18.70;41.99;99745.64;107394;1253;66316;-41
2023/05/28 07:20:06;;;;;;;6.60;2.70;;;;;;;18.66;41.68;99738.36;107463;1260;72793;-39
2023/05/28 07:22:57;;;;;;;3.90;2.00;;;;;;;18.74;42.86;99744.35;108205;1255;60407;-39
2023/05/28 07:25:25;;;;;;;6.00;2.40;;;;;;;18.88;43.36;99745.33;107534;1253;59548;-39
2023/05/28 07:27:52;;;;;;;6.60;2.40;;;;;;;19.05;41.82;99747.30;107450;1252;73916;-40
2023/05/28 07:30:26;;;;;;;5.00;2.40;;;;;;;19.17;41.98;99745.30;107596;1257;66292;-40
2023/05/28 07:32:57;;;;;;;5.90;2.30;;;;;;;19.25;41.79;99743.56;107606;1254;72658;-40
2023/05/28 07:35:25;;;;;;;6.70;2.40;;;;;;;19.31;41.17;99737.05;107430;1255;59416;-40
2023/05/28 07:37:53;;;;;;;5.30;2.30;;;;;;;19.37;40.96;99735.52;107436;1257;60358;-40
2023/05/28 07:40:21;;;;;;;6.80;2.80;;;;;;;19.42;40.08;99728.48;107497;1259;73890;-39
2023/05/28 07:42:49;;;;;;;8.60;2.30;;;;;;;19.44;40.56;99728.70;107704;1253;66251;-40
2023/05/28 07:45:17;;;;;;;4.80;3.00;;;;;;;19.50;41.13;99729.11;107644;1254;72710;-39
2023/05/28 07:47:45;;;;;;;8.80;2.40;;;;;;;19.57;40.24;99728.16;107543;1253;60193;-40
2023/05/28 07:50:35;;;;;;;5.30;2.60;;;;;;;19.63;40.15;99719.55;107358;1252;60033;-40
2023/05/28 07:53:12;;;;;;;6.60;3.00;;;;;;;19.68;39.59;99716.00;107629;1254;73083;-40
2023/05/28 07:55:40;;;;;;;8.30;2.50;;;;;;;19.76;39.52;99715.52;107716;1254;67072;-40
2023/05/28 07:58:08;;;;;;;4.60;2.50;;;;;;;19.88;39.55;99715.98;107662;1254;71381;-40
2023/05/28 08:00:36;;;;;;;3.80;2.20;;;;;;;19.98;38.90;99714.42;107479;1259;60469;-40
2023/05/28 08:03:04;;;;;;;4.40;2.40;;;;;;;20.05;39.24;99720.09;107617;1257;59576;-40
2023/05/28 08:05:41;;;;;;;5.70;2.20;;;;;;;20.14;39.10;99716.42;107602;1253;72566;-40
2023/05/28 08:08:09;;;;;;;5.40;2.60;;;;;;;20.26;39.16;99714.27;107698;1254;66251;-40
2023/05/28 08:10:37;;;;;;;4.30;2.40;;;;;;;20.40;39.07;99713.30;107567;1254;73132;-40
2023/05/28 08:13:05;;;;;;;5.30;2.40;;;;;;;20.52;38.29;99712.73;107702;1254;60428;-40
2023/05/28 08:15:34;;;;;;;8.20;2.60;;;;;;;20.62;37.61;99711.61;107500;1255;60272;-40
2023/05/28 08:18:02;;;;;;;7.30;2.20;;;;;;;20.71;36.93;99709.51;107538;1255;72105;-39
2023/05/28 08:20:30;;;;;;;7.20;2.30;;;;;;;20.80;37.03;99714.23;107634;1253;66395;-39
2023/05/28 08:26:21;;;;;;;4.50;2.30;;;;;;;21.06;37.80;99709.13;104100;1293;599564;-39
2023/05/28 08:28:49;;;;;;;5.70;2.30;;;;;;;21.19;37.50;99711.75;106595;1267;59232;-39
2023/05/28 08:31:17;;;;;;;4.10;2.20;;;;;;;21.33;36.87;99710.79;106579;1271;59240;-39
2023/05/28 08:34:11;;;;;;;5.20;2.40;;;;;;;21.40;36.03;99706.88;106560;1267;72292;-40
2023/05/28 08:36:43;;;;;;;8.00;2.70;;;;;;;21.39;35.44;99707.52;106609;1266;67570;-40
2023/05/28 08:39:13;;;;;;;6.20;2.30;;;;;;;21.39;36.03;99709.17;106502;1265;205895;-40
2023/05/28 08:41:43;;;;;;;3.60;2.00;;;;;;;21.46;36.04;99707.77;107580;1253;59285;-40
2023/05/28 08:44:10;;;;;;;5.30;2.30;;;;;;;21.57;35.68;99696.52;107564;1254;59340;-40
2023/05/28 08:46:38;;;;;;;5.60;2.30;;;;;;;21.65;35.27;99695.09;107484;1254;70982;-40
2023/05/28 08:49:28;;;;;;;6.80;2.40;;;;;;;21.70;35.20;99691.75;107513;1257;66758;-40
2023/05/28 08:51:56;;;;;;;3.40;2.00;;;;;;;21.72;35.01;99688.88;107488;1257;72367;-40
2023/05/28 08:54:25;;;;;;;5.80;2.20;;;;;;;21.74;34.28;99689.77;107445;1254;59607;-39
2023/05/28 08:56:53;;;;;;;5.30;2.70;;;;;;;21.74;34.10;99690.02;107423;1254;59999;-40
2023/05/28 08:59:21;;;;;;;4.70;2.40;;;;;;;21.71;34.30;99686.20;107363;1254;73055;-40
2023/05/28 09:01:50;;;;;;;4.40;2.10;;;;;;;21.72;33.77;99682.96;107407;1253;67559;-40
2023/05/28 09:04:20;;;;;;;3.80;2.00;;;;;;;21.74;33.61;99681.19;107499;1254;72346;-40
2023/05/28 09:06:51;;;;;;;4.60;2.20;;;;;;;21.75;33.23;99685.72;107563;1254;59612;-40
2023/05/28 09:09:40;;;;;;;4.50;2.30;;;;;;;21.75;33.27;99681.15;107420;1254;59283;-40
2023/05/28 09:12:11;;;;;;;6.60;2.50;;;;;;;21.71;32.68;99679.82;107510;1253;73030;-40
2023/05/28 09:14:41;;;;;;;7.20;2.40;;;;;;;21.73;32.29;99683.64;107526;1254;66301;-40
2023/05/28 09:17:09;;;;;;;4.50;2.20;;;;;;;21.76;32.17;99687.13;107391;1257;71475;-40
2023/05/28 09:19:38;;;;;;;6.00;2.30;;;;;;;21.81;31.64;99692.31;107455;1254;59739;-40
2023/05/28 09:22:06;;;;;;;3.80;2.00;;;;;;;21.85;30.95;99688.04;107562;1254;59653;-40
2023/05/28 09:24:40;;;;;;;3.90;1.90;;;;;;;21.89;31.78;99685.83;107502;1254;71831;-40
2023/05/28 09:27:31;;;;;;;5.10;2.30;;;;;;;21.96;31.99;99687.66;107406;1254;67681;-40
2023/05/28 09:30:07;;;;;;;3.20;2.10;;;;;;;21.98;31.55;99685.73;107485;1254;72661;-40
2023/05/28 09:32:35;;;;;;;6.40;2.30;;;;;;;22.02;31.60;99681.15;107494;1254;60080;-40
2023/05/28 09:35:06;;;;;;;3.70;2.20;;;;;;;22.07;31.65;99678.19;107470;1253;60045;-40
2023/05/28 09:37:37;;;;;;;4.70;2.20;;;;;;;22.12;31.34;99683.83;107515;1253;73040;-40
2023/05/28 09:40:10;;;;;;;5.40;2.10;;;;;;;22.20;31.56;99676.39;107450;1253;66873;-40
2023/05/28 09:42:42;;;;;;;4.30;2.20;;;;;;;22.33;32.15;99679.23;107471;1253;72670;-40
2023/05/28 09:45:10;;;;;;;5.20;2.50;;;;;;;22.45;31.17;99682.42;107407;1259;60119;-40
2023/05/28 09:47:44;;;;;;;6.80;2.70;;;;;;;22.52;30.24;99681.40;107494;1253;60046;-40
2023/05/28 09:50:12;;;;;;;3.80;2.40;;;;;;;22.58;31.13;99684.16;107434;1253;73061;-40
2023/05/28 09:52:42;;;;;;;7.80;2.90;;;;;;;22.66;31.13;99680.50;107444;1254;67942;-40
2023/05/28 09:55:15;;;;;;;3.80;2.10;;;;;;;22.74;30.72;99683.06;107402;1257;71943;-40
2023/05/28 09:58:07;;;;;;;4.80;2.10;;;;;;;22.81;30.17;99675.48;107443;1254;60063;-40
2023/05/28 10:00:36;;;;;;;5.00;2.20;;;;;;;22.89;29.54;99677.64;107306;1253;59597;-40
2023/05/28 10:03:19;;;;;;;5.20;2.60;;;;;;;22.90;28.32;99672.62;107494;1253;73044;-40
2023/05/28 10:05:49;;;;;;;5.80;2.10;;;;;;;22.85;28.73;99671.81;107432;1259;66304;-40
2023/05/28 10:08:17;;;;;;;4.90;2.40;;;;;;;22.86;28.40;99675.02;107349;1254;72680;-40
2023/05/28 10:10:50;;;;;;;5.30;2.00;;;;;;;22.90;28.33;99675.06;107279;1257;60077;-40
2023/05/28 10:13:17;;;;;;;2.30;1.80;;;;;;;22.97;28.65;99676.48;107441;1253;60170;-40
2023/05/28 10:15:45;;;;;;;3.60;2.00;;;;;;;23.07;28.16;99671.46;107289;1254;73149;-40
2023/05/28 10:18:16;;;;;;;5.10;2.20;;;;;;;23.17;28.63;99674.83;107329;1253;67591;-40
2023/05/28 10:20:44;;;;;;;2.90;2.00;;;;;;;23.30;28.22;99668.38;107414;1259;71799;-40
2023/05/28 10:23:12;;;;;;;5.50;2.30;;;;;;;23.46;28.64;99660.20;107420;1253;60152;-40
2023/05/28 10:25:39;;;;;;;6.60;1.80;;;;;;;23.65;28.10;99660.93;107410;1259;59484;-39
2023/05/28 10:28:07;;;;;;;3.60;2.10;;;;;;;23.81;28.57;99659.88;107395;1253;73070;-40
2023/05/28 10:30:35;;;;;;;3.30;2.10;;;;;;;24.03;28.23;99663.02;107409;1253;67605;-40
2023/05/28 10:33:15;;;;;;;6.20;2.40;;;;;;;24.24;27.94;99657.63;107386;1253;71391;-40
2023/05/28 10:35:53;;;;;;;4.70;2.50;;;;;;;24.47;26.89;99657.36;107388;1257;59688;-40
2023/05/28 10:38:22;;;;;;;6.40;2.40;;;;;;;24.60;26.66;99663.07;107411;1253;59779;-40
2023/05/28 10:40:50;;;;;;;3.30;2.20;;;;;;;24.73;26.20;99665.29;107489;1254;73165;-39
2023/05/28 10:43:41;;;;;;;4.60;2.40;;;;;;;24.84;26.53;99668.94;107412;1253;67939;-40
2023/05/28 10:46:15;;;;;;;5.30;2.30;;;;;;;25.03;26.31;99668.61;107465;1257;72747;-40
2023/05/28 10:49:02;;;;;;;2.80;2.20;;;;;;;25.20;26.23;99665.17;107412;1257;60064;-40
2023/05/28 10:51:56;;;;;;;5.70;1.80;;;;;;;25.39;26.57;99661.75;107386;1253;60416;-40
2023/05/28 10:54:33;;;;;;;3.80;1.80;;;;;;;25.63;25.61;99659.85;107397;1253;73096;-40
2023/05/28 10:57:21;;;;;;;6.70;2.50;;;;;;;25.87;25.51;99661.48;107385;1253;67917;-40
2023/05/28 10:59:57;;;;;;;3.10;1.90;;;;;;;25.93;25.25;99662.58;107409;1253;72670;-40
2023/05/28 11:02:26;;;;;;;4.70;2.00;;;;;;;25.98;25.25;99660.25;107496;1254;60155;-40
2023/05/28 11:04:55;;;;;;;5.60;1.90;;;;;;;26.04;24.70;99659.84;107421;1253;60044;-40
2023/05/28 11:07:33;;;;;;;3.80;2.20;;;;;;;26.10;24.42;99659.16;107515;1253;73063;-40
2023/05/28 11:10:01;;;;;;;3.50;2.10;;;;;;;26.20;25.27;99661.61;107442;1254;68382;-40
2023/05/28 11:12:30;;;;;;;4.10;2.00;;;;;;;26.36;24.37;99661.16;107438;1255;72144;-40
2023/05/28 11:14:58;;;;;;;3.40;2.40;;;;;;;26.45;24.58;99662.74;107359;1256;59601;-40
2023/05/28 11:17:26;;;;;;;4.30;2.50;;;;;;;26.60;24.36;99668.98;107421;1253;60103;-40
2023/05/28 11:19:53;;;;;;;6.70;2.60;;;;;;;26.69;23.89;99663.11;107400;1253;73130;-41
2023/05/28 11:22:21;;;;;;;3.10;2.40;;;;;;;26.78;24.26;99659.13;107435;1254;68587;-41
2023/05/28 11:24:49;;;;;;;6.30;2.50;;;;;;;26.97;23.87;99662.35;107391;1257;70873;-40
2023/05/28 11:27:17;;;;;;;3.80;2.70;;;;;;;27.08;23.42;99660.95;107402;1259;59611;-40
2023/05/28 11:29:44;;;;;;;3.30;2.40;;;;;;;27.14;22.50;99655.77;107383;1253;60151;-40
2023/05/28 11:32:12;;;;;;;6.20;2.50;;;;;;;27.21;23.46;99660.48;107356;1253;73054;-40
2023/05/28 11:34:40;;;;;;;3.30;2.30;;;;;;;27.41;23.38;99662.60;107503;1259;66641;-40
2023/05/28 11:37:08;;;;;;;4.10;2.30;;;;;;;27.51;23.34;99658.52;107402;1253;73144;-40
2023/05/28 11:39:35;;;;;;;7.70;2.40;;;;;;;27.66;23.07;99659.81;107367;1253;59667;-40
2023/05/28 11:42:03;;;;;;;5.40;2.30;;;;;;;27.91;22.40;99658.31;107392;1253;59264;-40